sensor_id;sensor_type;location;lat;lon;timestamp;P1;durP1;ratioP1;P2;durP2;ratioP2
39032;SDS011;24794;51.982;5.878;2023-05-07T00:00:10;5.15;;;3.72;;
39032;SDS011;24794;51.982;5.878;2023-05-07T00:01:11;4.88;;;3.65;;
39032;SDS011;24794;51.982;5.878;2023-05-07T00:02:12;7.28;;;3.90;;
39032;SDS011;24794;51.982;5.878;2023-05-07T00:03:12;4.90;;;3.78;;
39032;SDS011;24794;51.982;5.878;2023-05-07T00:04:13;6.28;;;3.58;;
39032;SDS011;24794;51.982;5.878;2023-05-07T00:05:14;4.55;;;4.13;;
39032;SDS011;24794;51.982;5.878;2023-05-07T00:06:14;8.45;;;4.50;;
39032;SDS011;24794;51.982;5.878;2023-05-07T00:07:15;6.18;;;4.03;;
39032;SDS011;24794;51.982;5.878;2023-05-07T00:08:16;5.68;;;3.90;;
39032;SDS011;24794;51.982;5.878;2023-05-07T00:09:16;5.63;;;4.20;;
39032;SDS011;24794;51.982;5.878;2023-05-07T00:10:17;5.35;;;3.90;;
39032;SDS011;24794;51.982;5.878;2023-05-07T00:11:17;4.80;;;3.63;;
39032;SDS011;24794;51.982;5.878;2023-05-07T00:12:18;6.68;;;3.72;;
39032;SDS011;24794;51.982;5.878;2023-05-07T00:13:18;5.18;;;3.65;;
39032;SDS011;24794;51.982;5.878;2023-05-07T00:14:19;7.30;;;3.70;;
39032;SDS011;24794;51.982;5.878;2023-05-07T00:15:19;6.22;;;3.70;;
39032;SDS011;24794;51.982;5.878;2023-05-07T00:16:20;4.60;;;3.90;;
39032;SDS011;24794;51.982;5.878;2023-05-07T00:17:21;4.75;;;3.47;;
39032;SDS011;24794;51.982;5.878;2023-05-07T00:18:21;5.72;;;4.05;;
39032;SDS011;24794;51.982;5.878;2023-05-07T00:19:22;5.20;;;4.00;;
39032;SDS011;24794;51.982;5.878;2023-05-07T00:20:23;4.82;;;3.53;;
39032;SDS011;24794;51.982;5.878;2023-05-07T00:21:23;5.85;;;3.70;;
39032;SDS011;24794;51.982;5.878;2023-05-07T00:22:26;5.07;;;3.80;;
39032;SDS011;24794;51.982;5.878;2023-05-07T00:23:27;4.97;;;3.70;;
39032;SDS011;24794;51.982;5.878;2023-05-07T00:24:27;5.18;;;3.63;;
39032;SDS011;24794;51.982;5.878;2023-05-07T00:25:28;4.85;;;3.78;;
39032;SDS011;24794;51.982;5.878;2023-05-07T00:26:28;6.53;;;4.20;;
39032;SDS011;24794;51.982;5.878;2023-05-07T00:27:29;6.65;;;3.60;;
39032;SDS011;24794;51.982;5.878;2023-05-07T00:28:29;4.88;;;4.10;;
39032;SDS011;24794;51.982;5.878;2023-05-07T00:29:30;6.15;;;3.95;;
39032;SDS011;24794;51.982;5.878;2023-05-07T00:30:30;6.20;;;3.95;;
39032;SDS011;24794;51.982;5.878;2023-05-07T00:31:31;6.22;;;3.95;;
39032;SDS011;24794;51.982;5.878;2023-05-07T00:32:32;5.75;;;3.90;;
39032;SDS011;24794;51.982;5.878;2023-05-07T00:33:32;6.05;;;3.72;;
39032;SDS011;24794;51.982;5.878;2023-05-07T00:34:33;5.10;;;3.70;;
39032;SDS011;24794;51.982;5.878;2023-05-07T00:35:33;5.40;;;4.20;;
39032;SDS011;24794;51.982;5.878;2023-05-07T00:36:34;4.72;;;3.88;;
39032;SDS011;24794;51.982;5.878;2023-05-07T00:37:34;5.13;;;3.80;;
39032;SDS011;24794;51.982;5.878;2023-05-07T00:38:35;6.38;;;3.75;;
39032;SDS011;24794;51.982;5.878;2023-05-07T00:39:36;5.13;;;3.80;;
39032;SDS011;24794;51.982;5.878;2023-05-07T00:40:36;6.43;;;4.22;;
39032;SDS011;24794;51.982;5.878;2023-05-07T00:41:37;6.38;;;4.25;;
39032;SDS011;24794;51.982;5.878;2023-05-07T00:42:37;5.47;;;3.85;;
39032;SDS011;24794;51.982;5.878;2023-05-07T00:43:38;6.18;;;4.28;;
39032;SDS011;24794;51.982;5.878;2023-05-07T00:44:38;5.93;;;4.20;;
39032;SDS011;24794;51.982;5.878;2023-05-07T00:45:39;5.78;;;3.90;;
39032;SDS011;24794;51.982;5.878;2023-05-07T00:46:40;7.57;;;4.45;;
39032;SDS011;24794;51.982;5.878;2023-05-07T00:47:40;6.22;;;4.13;;
39032;SDS011;24794;51.982;5.878;2023-05-07T00:48:41;4.38;;;3.90;;
39032;SDS011;24794;51.982;5.878;2023-05-07T00:49:43;5.30;;;4.13;;
39032;SDS011;24794;51.982;5.878;2023-05-07T00:50:45;5.78;;;3.63;;
39032;SDS011;24794;51.982;5.878;2023-05-07T00:51:45;6.97;;;4.50;;
39032;SDS011;24794;51.982;5.878;2023-05-07T00:52:46;5.57;;;3.95;;
39032;SDS011;24794;51.982;5.878;2023-05-07T00:53:47;7.00;;;4.53;;
39032;SDS011;24794;51.982;5.878;2023-05-07T00:54:48;7.55;;;4.18;;
39032;SDS011;24794;51.982;5.878;2023-05-07T00:55:48;6.63;;;4.45;;
39032;SDS011;24794;51.982;5.878;2023-05-07T00:56:49;7.20;;;4.57;;
39032;SDS011;24794;51.982;5.878;2023-05-07T00:57:50;6.32;;;4.32;;
39032;SDS011;24794;51.982;5.878;2023-05-07T00:58:51;6.72;;;4.60;;
39032;SDS011;24794;51.982;5.878;2023-05-07T00:59:51;6.68;;;4.10;;
39032;SDS011;24794;51.982;5.878;2023-05-07T01:00:52;7.13;;;4.10;;
39032;SDS011;24794;51.982;5.878;2023-05-07T01:01:52;6.43;;;4.50;;
39032;SDS011;24794;51.982;5.878;2023-05-07T01:02:53;5.38;;;4.00;;
39032;SDS011;24794;51.982;5.878;2023-05-07T01:03:54;6.15;;;4.28;;
39032;SDS011;24794;51.982;5.878;2023-05-07T01:04:55;5.85;;;4.20;;
39032;SDS011;24794;51.982;5.878;2023-05-07T01:05:56;8.52;;;4.70;;
39032;SDS011;24794;51.982;5.878;2023-05-07T01:06:59;6.78;;;4.70;;
39032;SDS011;24794;51.982;5.878;2023-05-07T01:08:02;6.55;;;4.45;;
39032;SDS011;24794;51.982;5.878;2023-05-07T01:09:03;6.18;;;4.45;;
39032;SDS011;24794;51.982;5.878;2023-05-07T01:10:04;8.85;;;5.22;;
39032;SDS011;24794;51.982;5.878;2023-05-07T01:11:06;6.80;;;5.05;;
39032;SDS011;24794;51.982;5.878;2023-05-07T01:12:07;6.68;;;4.45;;
39032;SDS011;24794;51.982;5.878;2023-05-07T01:13:09;7.35;;;4.78;;
39032;SDS011;24794;51.982;5.878;2023-05-07T01:14:10;6.32;;;4.75;;
39032;SDS011;24794;51.982;5.878;2023-05-07T01:15:11;8.57;;;5.22;;
39032;SDS011;24794;51.982;5.878;2023-05-07T01:16:12;6.47;;;4.55;;
39032;SDS011;24794;51.982;5.878;2023-05-07T01:17:12;6.28;;;5.18;;
39032;SDS011;24794;51.982;5.878;2023-05-07T01:18:13;8.35;;;6.10;;
39032;SDS011;24794;51.982;5.878;2023-05-07T01:19:15;10.13;;;5.82;;
39032;SDS011;24794;51.982;5.878;2023-05-07T01:20:18;6.93;;;5.53;;
39032;SDS011;24794;51.982;5.878;2023-05-07T01:21:19;6.32;;;5.13;;
39032;SDS011;24794;51.982;5.878;2023-05-07T01:22:30;6.95;;;5.10;;
39032;SDS011;24794;51.982;5.878;2023-05-07T01:23:37;7.95;;;5.35;;
39032;SDS011;24794;51.982;5.878;2023-05-07T01:24:39;7.45;;;4.88;;
39032;SDS011;24794;51.982;5.878;2023-05-07T01:25:41;7.72;;;5.00;;
39032;SDS011;24794;51.982;5.878;2023-05-07T01:26:42;8.77;;;5.00;;
39032;SDS011;24794;51.982;5.878;2023-05-07T01:27:44;6.50;;;4.95;;
39032;SDS011;24794;51.982;5.878;2023-05-07T01:28:45;8.70;;;5.45;;
39032;SDS011;24794;51.982;5.878;2023-05-07T01:29:45;6.30;;;5.32;;
39032;SDS011;24794;51.982;5.878;2023-05-07T01:30:48;6.13;;;5.20;;
39032;SDS011;24794;51.982;5.878;2023-05-07T01:31:53;6.60;;;4.97;;
39032;SDS011;24794;51.982;5.878;2023-05-07T01:33:00;5.57;;;4.38;;
39032;SDS011;24794;51.982;5.878;2023-05-07T01:34:13;6.78;;;5.30;;
39032;SDS011;24794;51.982;5.878;2023-05-07T01:35:18;7.35;;;5.05;;
39032;SDS011;24794;51.982;5.878;2023-05-07T01:36:22;5.88;;;4.53;;
39032;SDS011;24794;51.982;5.878;2023-05-07T01:37:26;6.40;;;4.63;;
39032;SDS011;24794;51.982;5.878;2023-05-07T01:38:27;4.88;;;4.38;;
39032;SDS011;24794;51.982;5.878;2023-05-07T01:39:28;8.35;;;4.93;;
39032;SDS011;24794;51.982;5.878;2023-05-07T01:40:30;6.68;;;5.50;;
39032;SDS011;24794;51.982;5.878;2023-05-07T01:41:30;6.00;;;4.90;;
39032;SDS011;24794;51.982;5.878;2023-05-07T01:42:31;7.20;;;4.95;;
39032;SDS011;24794;51.982;5.878;2023-05-07T01:43:33;5.28;;;4.75;;
39032;SDS011;24794;51.982;5.878;2023-05-07T01:44:35;5.90;;;4.93;;
39032;SDS011;24794;51.982;5.878;2023-05-07T01:45:35;6.03;;;4.70;;
39032;SDS011;24794;51.982;5.878;2023-05-07T01:46:36;7.00;;;4.90;;
39032;SDS011;24794;51.982;5.878;2023-05-07T01:47:37;7.03;;;5.00;;
39032;SDS011;24794;51.982;5.878;2023-05-07T01:48:38;7.32;;;4.82;;
39032;SDS011;24794;51.982;5.878;2023-05-07T01:49:39;7.05;;;4.88;;
39032;SDS011;24794;51.982;5.878;2023-05-07T01:50:41;6.60;;;5.15;;
39032;SDS011;24794;51.982;5.878;2023-05-07T01:51:43;6.22;;;4.60;;
39032;SDS011;24794;51.982;5.878;2023-05-07T01:52:44;6.78;;;5.40;;
39032;SDS011;24794;51.982;5.878;2023-05-07T01:53:44;6.63;;;4.78;;
39032;SDS011;24794;51.982;5.878;2023-05-07T01:54:47;7.82;;;5.20;;
39032;SDS011;24794;51.982;5.878;2023-05-07T01:55:48;8.77;;;5.07;;
39032;SDS011;24794;51.982;5.878;2023-05-07T01:56:48;7.53;;;5.20;;
39032;SDS011;24794;51.982;5.878;2023-05-07T01:57:49;7.50;;;4.97;;
39032;SDS011;24794;51.982;5.878;2023-05-07T01:58:50;6.63;;;5.15;;
39032;SDS011;24794;51.982;5.878;2023-05-07T01:59:51;6.63;;;5.35;;
39032;SDS011;24794;51.982;5.878;2023-05-07T02:00:52;6.05;;;5.43;;
39032;SDS011;24794;51.982;5.878;2023-05-07T02:01:52;6.82;;;5.40;;
39032;SDS011;24794;51.982;5.878;2023-05-07T02:02:53;9.68;;;6.63;;
39032;SDS011;24794;51.982;5.878;2023-05-07T02:03:53;7.78;;;6.25;;
39032;SDS011;24794;51.982;5.878;2023-05-07T02:04:54;7.43;;;5.97;;
39032;SDS011;24794;51.982;5.878;2023-05-07T02:05:55;8.15;;;5.95;;
39032;SDS011;24794;51.982;5.878;2023-05-07T02:06:55;7.18;;;5.43;;
39032;SDS011;24794;51.982;5.878;2023-05-07T02:07:56;8.10;;;6.03;;
39032;SDS011;24794;51.982;5.878;2023-05-07T02:08:56;7.60;;;5.47;;
39032;SDS011;24794;51.982;5.878;2023-05-07T02:09:57;7.47;;;5.63;;
39032;SDS011;24794;51.982;5.878;2023-05-07T02:10:57;8.60;;;6.18;;
39032;SDS011;24794;51.982;5.878;2023-05-07T02:11:58;8.20;;;6.07;;
39032;SDS011;24794;51.982;5.878;2023-05-07T02:12:59;8.60;;;6.05;;
39032;SDS011;24794;51.982;5.878;2023-05-07T02:14:01;8.02;;;6.35;;
39032;SDS011;24794;51.982;5.878;2023-05-07T02:15:02;7.03;;;5.75;;
39032;SDS011;24794;51.982;5.878;2023-05-07T02:16:02;6.97;;;5.93;;
39032;SDS011;24794;51.982;5.878;2023-05-07T02:17:03;7.05;;;5.30;;
39032;SDS011;24794;51.982;5.878;2023-05-07T02:18:05;6.05;;;5.28;;
39032;SDS011;24794;51.982;5.878;2023-05-07T02:19:07;7.38;;;5.60;;
39032;SDS011;24794;51.982;5.878;2023-05-07T02:20:08;9.80;;;6.22;;
39032;SDS011;24794;51.982;5.878;2023-05-07T02:21:13;8.57;;;6.00;;
39032;SDS011;24794;51.982;5.878;2023-05-07T02:22:13;6.05;;;5.35;;
39032;SDS011;24794;51.982;5.878;2023-05-07T02:23:14;6.88;;;5.80;;
39032;SDS011;24794;51.982;5.878;2023-05-07T02:24:14;6.90;;;6.05;;
39032;SDS011;24794;51.982;5.878;2023-05-07T02:25:15;6.60;;;5.53;;
39032;SDS011;24794;51.982;5.878;2023-05-07T02:26:15;10.23;;;6.07;;
39032;SDS011;24794;51.982;5.878;2023-05-07T02:27:16;7.10;;;6.00;;
39032;SDS011;24794;51.982;5.878;2023-05-07T02:28:16;6.90;;;5.45;;
39032;SDS011;24794;51.982;5.878;2023-05-07T02:29:17;6.93;;;6.22;;
39032;SDS011;24794;51.982;5.878;2023-05-07T02:30:17;7.47;;;5.82;;
39032;SDS011;24794;51.982;5.878;2023-05-07T02:31:18;8.77;;;5.97;;
39032;SDS011;24794;51.982;5.878;2023-05-07T02:32:19;7.50;;;6.13;;
39032;SDS011;24794;51.982;5.878;2023-05-07T02:33:19;6.97;;;5.90;;
39032;SDS011;24794;51.982;5.878;2023-05-07T02:34:20;9.45;;;6.13;;
39032;SDS011;24794;51.982;5.878;2023-05-07T02:35:21;8.85;;;6.43;;
39032;SDS011;24794;51.982;5.878;2023-05-07T02:36:21;7.80;;;6.35;;
39032;SDS011;24794;51.982;5.878;2023-05-07T02:37:22;7.65;;;6.30;;
39032;SDS011;24794;51.982;5.878;2023-05-07T02:38:22;7.15;;;6.45;;
39032;SDS011;24794;51.982;5.878;2023-05-07T02:39:23;7.30;;;6.18;;
39032;SDS011;24794;51.982;5.878;2023-05-07T02:40:24;10.35;;;7.25;;
39032;SDS011;24794;51.982;5.878;2023-05-07T02:41:24;8.60;;;6.93;;
39032;SDS011;24794;51.982;5.878;2023-05-07T02:42:25;11.73;;;8.27;;
39032;SDS011;24794;51.982;5.878;2023-05-07T02:43:25;8.45;;;6.88;;
39032;SDS011;24794;51.982;5.878;2023-05-07T02:44:26;10.52;;;7.38;;
39032;SDS011;24794;51.982;5.878;2023-05-07T02:45:26;7.78;;;6.85;;
39032;SDS011;24794;51.982;5.878;2023-05-07T02:46:27;8.13;;;7.25;;
39032;SDS011;24794;51.982;5.878;2023-05-07T02:47:27;9.05;;;7.40;;
39032;SDS011;24794;51.982;5.878;2023-05-07T02:48:28;7.78;;;6.97;;
39032;SDS011;24794;51.982;5.878;2023-05-07T02:49:29;10.23;;;6.70;;
39032;SDS011;24794;51.982;5.878;2023-05-07T02:50:29;8.70;;;7.18;;
39032;SDS011;24794;51.982;5.878;2023-05-07T02:51:30;8.40;;;6.22;;
39032;SDS011;24794;51.982;5.878;2023-05-07T02:52:31;9.90;;;6.65;;
39032;SDS011;24794;51.982;5.878;2023-05-07T02:53:32;8.07;;;6.43;;
39032;SDS011;24794;51.982;5.878;2023-05-07T02:54:32;8.27;;;6.03;;
39032;SDS011;24794;51.982;5.878;2023-05-07T02:55:33;8.13;;;6.28;;
39032;SDS011;24794;51.982;5.878;2023-05-07T02:56:33;7.68;;;6.43;;
39032;SDS011;24794;51.982;5.878;2023-05-07T02:57:34;8.25;;;6.20;;
39032;SDS011;24794;51.982;5.878;2023-05-07T02:58:35;8.07;;;6.55;;
39032;SDS011;24794;51.982;5.878;2023-05-07T02:59:35;8.63;;;6.93;;
39032;SDS011;24794;51.982;5.878;2023-05-07T03:00:36;8.05;;;6.28;;
39032;SDS011;24794;51.982;5.878;2023-05-07T03:01:37;7.32;;;6.15;;
39032;SDS011;24794;51.982;5.878;2023-05-07T03:02:37;9.68;;;5.93;;
39032;SDS011;24794;51.982;5.878;2023-05-07T03:03:38;7.35;;;6.22;;
39032;SDS011;24794;51.982;5.878;2023-05-07T03:04:39;9.30;;;6.47;;
39032;SDS011;24794;51.982;5.878;2023-05-07T03:05:39;9.40;;;7.07;;
39032;SDS011;24794;51.982;5.878;2023-05-07T03:06:40;8.23;;;6.55;;
39032;SDS011;24794;51.982;5.878;2023-05-07T03:07:41;7.47;;;6.55;;
39032;SDS011;24794;51.982;5.878;2023-05-07T03:08:45;8.02;;;6.47;;
39032;SDS011;24794;51.982;5.878;2023-05-07T03:09:45;8.20;;;6.95;;
39032;SDS011;24794;51.982;5.878;2023-05-07T03:10:46;9.55;;;6.40;;
39032;SDS011;24794;51.982;5.878;2023-05-07T03:11:47;8.68;;;6.78;;
39032;SDS011;24794;51.982;5.878;2023-05-07T03:12:47;9.27;;;7.38;;
39032;SDS011;24794;51.982;5.878;2023-05-07T03:13:48;9.55;;;7.25;;
39032;SDS011;24794;51.982;5.878;2023-05-07T03:14:49;8.27;;;7.18;;
39032;SDS011;24794;51.982;5.878;2023-05-07T03:15:50;9.80;;;7.97;;
39032;SDS011;24794;51.982;5.878;2023-05-07T03:16:50;11.20;;;8.57;;
39032;SDS011;24794;51.982;5.878;2023-05-07T03:17:51;12.80;;;9.55;;
39032;SDS011;24794;51.982;5.878;2023-05-07T03:18:52;12.98;;;8.90;;
39032;SDS011;24794;51.982;5.878;2023-05-07T03:19:52;9.13;;;7.78;;
39032;SDS011;24794;51.982;5.878;2023-05-07T03:20:53;9.63;;;7.72;;
39032;SDS011;24794;51.982;5.878;2023-05-07T03:21:53;10.73;;;7.43;;
39032;SDS011;24794;51.982;5.878;2023-05-07T03:22:54;10.13;;;7.50;;
39032;SDS011;24794;51.982;5.878;2023-05-07T03:23:54;10.07;;;7.03;;
39032;SDS011;24794;51.982;5.878;2023-05-07T03:24:55;10.93;;;8.48;;
39032;SDS011;24794;51.982;5.878;2023-05-07T03:25:55;10.75;;;8.38;;
39032;SDS011;24794;51.982;5.878;2023-05-07T03:26:56;11.00;;;7.70;;
39032;SDS011;24794;51.982;5.878;2023-05-07T03:27:57;9.25;;;7.32;;
39032;SDS011;24794;51.982;5.878;2023-05-07T03:28:58;11.40;;;8.85;;
39032;SDS011;24794;51.982;5.878;2023-05-07T03:29:59;11.50;;;8.68;;
39032;SDS011;24794;51.982;5.878;2023-05-07T03:31:00;9.15;;;7.57;;
39032;SDS011;24794;51.982;5.878;2023-05-07T03:32:00;9.77;;;7.75;;
39032;SDS011;24794;51.982;5.878;2023-05-07T03:33:01;10.35;;;7.47;;
39032;SDS011;24794;51.982;5.878;2023-05-07T03:34:02;10.20;;;7.30;;
39032;SDS011;24794;51.982;5.878;2023-05-07T03:35:02;8.13;;;7.00;;
39032;SDS011;24794;51.982;5.878;2023-05-07T03:36:03;11.05;;;7.05;;
39032;SDS011;24794;51.982;5.878;2023-05-07T03:37:04;9.15;;;6.75;;
39032;SDS011;24794;51.982;5.878;2023-05-07T03:38:05;10.65;;;7.85;;
39032;SDS011;24794;51.982;5.878;2023-05-07T03:39:05;8.20;;;6.70;;
39032;SDS011;24794;51.982;5.878;2023-05-07T03:40:06;10.00;;;6.95;;
39032;SDS011;24794;51.982;5.878;2023-05-07T03:41:07;7.53;;;6.57;;
39032;SDS011;24794;51.982;5.878;2023-05-07T03:42:08;7.10;;;6.18;;
39032;SDS011;24794;51.982;5.878;2023-05-07T03:43:08;7.00;;;5.85;;
39032;SDS011;24794;51.982;5.878;2023-05-07T03:44:09;7.40;;;6.15;;
39032;SDS011;24794;51.982;5.878;2023-05-07T03:45:10;8.43;;;6.07;;
39032;SDS011;24794;51.982;5.878;2023-05-07T03:46:10;8.15;;;6.18;;
39032;SDS011;24794;51.982;5.878;2023-05-07T03:47:11;8.57;;;6.88;;
39032;SDS011;24794;51.982;5.878;2023-05-07T03:48:13;8.23;;;6.85;;
39032;SDS011;24794;51.982;5.878;2023-05-07T03:49:13;8.95;;;6.60;;
39032;SDS011;24794;51.982;5.878;2023-05-07T03:50:14;7.20;;;6.00;;
39032;SDS011;24794;51.982;5.878;2023-05-07T03:51:14;8.57;;;6.65;;
39032;SDS011;24794;51.982;5.878;2023-05-07T03:52:15;9.98;;;7.53;;
39032;SDS011;24794;51.982;5.878;2023-05-07T03:53:16;10.57;;;7.88;;
39032;SDS011;24794;51.982;5.878;2023-05-07T03:54:16;10.00;;;7.47;;
39032;SDS011;24794;51.982;5.878;2023-05-07T03:55:17;9.35;;;7.10;;
39032;SDS011;24794;51.982;5.878;2023-05-07T03:56:18;9.18;;;6.88;;
39032;SDS011;24794;51.982;5.878;2023-05-07T03:57:19;8.57;;;7.35;;
39032;SDS011;24794;51.982;5.878;2023-05-07T03:58:20;9.32;;;7.95;;
39032;SDS011;24794;51.982;5.878;2023-05-07T03:59:21;10.23;;;7.35;;
39032;SDS011;24794;51.982;5.878;2023-05-07T04:00:22;9.27;;;7.35;;
39032;SDS011;24794;51.982;5.878;2023-05-07T04:01:23;9.57;;;7.63;;
39032;SDS011;24794;51.982;5.878;2023-05-07T04:02:23;12.00;;;7.55;;
39032;SDS011;24794;51.982;5.878;2023-05-07T04:03:24;9.98;;;7.72;;
39032;SDS011;24794;51.982;5.878;2023-05-07T04:04:26;8.80;;;7.18;;
39032;SDS011;24794;51.982;5.878;2023-05-07T04:05:26;8.23;;;6.93;;
39032;SDS011;24794;51.982;5.878;2023-05-07T04:06:27;9.48;;;6.63;;
39032;SDS011;24794;51.982;5.878;2023-05-07T04:07:28;8.85;;;7.13;;
39032;SDS011;24794;51.982;5.878;2023-05-07T04:08:28;9.40;;;7.25;;
39032;SDS011;24794;51.982;5.878;2023-05-07T04:09:29;11.38;;;7.53;;
39032;SDS011;24794;51.982;5.878;2023-05-07T04:10:29;9.07;;;7.72;;
39032;SDS011;24794;51.982;5.878;2023-05-07T04:11:30;10.65;;;8.43;;
39032;SDS011;24794;51.982;5.878;2023-05-07T04:12:30;9.95;;;8.40;;
39032;SDS011;24794;51.982;5.878;2023-05-07T04:13:31;12.20;;;9.05;;
39032;SDS011;24794;51.982;5.878;2023-05-07T04:14:31;10.45;;;9.00;;
39032;SDS011;24794;51.982;5.878;2023-05-07T04:15:32;11.32;;;8.57;;
39032;SDS011;24794;51.982;5.878;2023-05-07T04:16:32;10.25;;;7.88;;
39032;SDS011;24794;51.982;5.878;2023-05-07T04:17:34;11.88;;;8.38;;
39032;SDS011;24794;51.982;5.878;2023-05-07T04:18:35;11.32;;;7.97;;
39032;SDS011;24794;51.982;5.878;2023-05-07T04:19:36;11.07;;;8.02;;
39032;SDS011;24794;51.982;5.878;2023-05-07T04:20:36;11.50;;;8.05;;
39032;SDS011;24794;51.982;5.878;2023-05-07T04:21:37;9.55;;;7.90;;
39032;SDS011;24794;51.982;5.878;2023-05-07T04:22:37;10.10;;;8.13;;
39032;SDS011;24794;51.982;5.878;2023-05-07T04:23:38;9.70;;;7.47;;
39032;SDS011;24794;51.982;5.878;2023-05-07T04:24:38;10.73;;;7.43;;
39032;SDS011;24794;51.982;5.878;2023-05-07T04:25:39;12.35;;;8.18;;
39032;SDS011;24794;51.982;5.878;2023-05-07T04:26:39;9.38;;;7.97;;
39032;SDS011;24794;51.982;5.878;2023-05-07T04:27:40;10.05;;;8.02;;
39032;SDS011;24794;51.982;5.878;2023-05-07T04:28:41;10.13;;;7.90;;
39032;SDS011;24794;51.982;5.878;2023-05-07T04:29:41;11.68;;;9.00;;
39032;SDS011;24794;51.982;5.878;2023-05-07T04:30:43;9.60;;;8.20;;
39032;SDS011;24794;51.982;5.878;2023-05-07T04:31:43;11.82;;;9.85;;
39032;SDS011;24794;51.982;5.878;2023-05-07T04:32:45;12.98;;;10.82;;
39032;SDS011;24794;51.982;5.878;2023-05-07T04:33:48;11.20;;;10.00;;
39032;SDS011;24794;51.982;5.878;2023-05-07T04:34:48;12.32;;;9.10;;
39032;SDS011;24794;51.982;5.878;2023-05-07T04:35:49;12.90;;;9.15;;
39032;SDS011;24794;51.982;5.878;2023-05-07T04:36:49;9.93;;;8.93;;
39032;SDS011;24794;51.982;5.878;2023-05-07T04:37:50;12.38;;;10.13;;
39032;SDS011;24794;51.982;5.878;2023-05-07T04:38:50;14.65;;;11.48;;
39032;SDS011;24794;51.982;5.878;2023-05-07T04:39:50;13.63;;;10.68;;
39032;SDS011;24794;51.982;5.878;2023-05-07T04:40:51;13.23;;;11.13;;
39032;SDS011;24794;51.982;5.878;2023-05-07T04:41:52;13.55;;;9.80;;
39032;SDS011;24794;51.982;5.878;2023-05-07T04:42:52;11.90;;;10.00;;
39032;SDS011;24794;51.982;5.878;2023-05-07T04:43:53;12.57;;;10.20;;
39032;SDS011;24794;51.982;5.878;2023-05-07T04:44:53;12.60;;;11.30;;
39032;SDS011;24794;51.982;5.878;2023-05-07T04:45:54;12.48;;;10.25;;
39032;SDS011;24794;51.982;5.878;2023-05-07T04:46:55;13.50;;;9.85;;
39032;SDS011;24794;51.982;5.878;2023-05-07T04:47:55;12.40;;;10.38;;
39032;SDS011;24794;51.982;5.878;2023-05-07T04:48:56;11.68;;;9.82;;
39032;SDS011;24794;51.982;5.878;2023-05-07T04:49:57;12.63;;;10.23;;
39032;SDS011;24794;51.982;5.878;2023-05-07T04:50:58;12.73;;;10.50;;
39032;SDS011;24794;51.982;5.878;2023-05-07T04:51:58;12.40;;;11.00;;
39032;SDS011;24794;51.982;5.878;2023-05-07T04:52:58;13.82;;;11.05;;
39032;SDS011;24794;51.982;5.878;2023-05-07T04:53:59;13.75;;;11.10;;
39032;SDS011;24794;51.982;5.878;2023-05-07T04:55:00;12.45;;;10.40;;
39032;SDS011;24794;51.982;5.878;2023-05-07T04:56:00;11.25;;;9.77;;
39032;SDS011;24794;51.982;5.878;2023-05-07T04:57:03;12.65;;;11.35;;
39032;SDS011;24794;51.982;5.878;2023-05-07T04:58:04;12.80;;;11.05;;
39032;SDS011;24794;51.982;5.878;2023-05-07T04:59:06;13.43;;;11.90;;
39032;SDS011;24794;51.982;5.878;2023-05-07T05:00:06;12.82;;;10.82;;
39032;SDS011;24794;51.982;5.878;2023-05-07T05:01:11;13.02;;;11.70;;
39032;SDS011;24794;51.982;5.878;2023-05-07T05:02:12;13.93;;;10.60;;
39032;SDS011;24794;51.982;5.878;2023-05-07T05:03:12;13.02;;;11.45;;
39032;SDS011;24794;51.982;5.878;2023-05-07T05:04:13;12.75;;;10.38;;
39032;SDS011;24794;51.982;5.878;2023-05-07T05:05:13;12.95;;;11.02;;
39032;SDS011;24794;51.982;5.878;2023-05-07T05:06:14;11.05;;;9.30;;
39032;SDS011;24794;51.982;5.878;2023-05-07T05:07:14;13.05;;;10.90;;
39032;SDS011;24794;51.982;5.878;2023-05-07T05:08:15;12.30;;;11.00;;
39032;SDS011;24794;51.982;5.878;2023-05-07T05:09:15;10.35;;;9.30;;
39032;SDS011;24794;51.982;5.878;2023-05-07T05:10:16;12.73;;;11.43;;
39032;SDS011;24794;51.982;5.878;2023-05-07T05:11:17;11.82;;;10.23;;
39032;SDS011;24794;51.982;5.878;2023-05-07T05:12:17;12.00;;;9.55;;
39032;SDS011;24794;51.982;5.878;2023-05-07T05:13:18;13.63;;;10.93;;
39032;SDS011;24794;51.982;5.878;2023-05-07T05:14:18;11.95;;;10.27;;
39032;SDS011;24794;51.982;5.878;2023-05-07T05:15:19;12.43;;;10.57;;
39032;SDS011;24794;51.982;5.878;2023-05-07T05:16:19;12.40;;;11.05;;
39032;SDS011;24794;51.982;5.878;2023-05-07T05:17:20;10.32;;;9.23;;
39032;SDS011;24794;51.982;5.878;2023-05-07T05:18:20;9.98;;;8.75;;
39032;SDS011;24794;51.982;5.878;2023-05-07T05:19:21;10.80;;;8.77;;
39032;SDS011;24794;51.982;5.878;2023-05-07T05:20:21;10.52;;;9.40;;
39032;SDS011;24794;51.982;5.878;2023-05-07T05:21:22;13.02;;;10.25;;
39032;SDS011;24794;51.982;5.878;2023-05-07T05:22:22;9.93;;;8.68;;
39032;SDS011;24794;51.982;5.878;2023-05-07T05:23:23;10.98;;;8.93;;
39032;SDS011;24794;51.982;5.878;2023-05-07T05:24:23;9.52;;;8.50;;
39032;SDS011;24794;51.982;5.878;2023-05-07T05:25:24;9.63;;;8.43;;
39032;SDS011;24794;51.982;5.878;2023-05-07T05:26:25;12.52;;;9.02;;
39032;SDS011;24794;51.982;5.878;2023-05-07T05:27:25;13.25;;;11.68;;
39032;SDS011;24794;51.982;5.878;2023-05-07T05:28:26;12.27;;;10.70;;
39032;SDS011;24794;51.982;5.878;2023-05-07T05:29:27;13.40;;;9.18;;
39032;SDS011;24794;51.982;5.878;2023-05-07T05:30:28;10.02;;;8.65;;
39032;SDS011;24794;51.982;5.878;2023-05-07T05:31:28;13.07;;;11.10;;
39032;SDS011;24794;51.982;5.878;2023-05-07T05:32:29;12.85;;;11.02;;
39032;SDS011;24794;51.982;5.878;2023-05-07T05:33:30;12.65;;;11.27;;
39032;SDS011;24794;51.982;5.878;2023-05-07T05:34:30;14.05;;;11.25;;
39032;SDS011;24794;51.982;5.878;2023-05-07T05:35:33;13.63;;;11.20;;
39032;SDS011;24794;51.982;5.878;2023-05-07T05:36:34;14.13;;;11.88;;
39032;SDS011;24794;51.982;5.878;2023-05-07T05:37:35;14.57;;;12.98;;
39032;SDS011;24794;51.982;5.878;2023-05-07T05:38:36;12.82;;;11.52;;
39032;SDS011;24794;51.982;5.878;2023-05-07T05:39:36;12.05;;;10.38;;
39032;SDS011;24794;51.982;5.878;2023-05-07T05:40:37;13.55;;;10.98;;
39032;SDS011;24794;51.982;5.878;2023-05-07T05:41:37;13.85;;;10.98;;
39032;SDS011;24794;51.982;5.878;2023-05-07T05:42:38;11.70;;;9.85;;
39032;SDS011;24794;51.982;5.878;2023-05-07T05:43:38;12.55;;;11.15;;
39032;SDS011;24794;51.982;5.878;2023-05-07T05:44:39;13.00;;;10.70;;
39032;SDS011;24794;51.982;5.878;2023-05-07T05:45:40;11.88;;;10.35;;
39032;SDS011;24794;51.982;5.878;2023-05-07T05:46:40;11.23;;;10.10;;
39032;SDS011;24794;51.982;5.878;2023-05-07T05:47:41;14.68;;;10.93;;
39032;SDS011;24794;51.982;5.878;2023-05-07T05:48:41;14.13;;;11.02;;
39032;SDS011;24794;51.982;5.878;2023-05-07T05:49:42;12.80;;;11.23;;
39032;SDS011;24794;51.982;5.878;2023-05-07T05:50:43;11.43;;;10.25;;
39032;SDS011;24794;51.982;5.878;2023-05-07T05:51:43;12.55;;;10.20;;
39032;SDS011;24794;51.982;5.878;2023-05-07T05:52:44;10.50;;;8.77;;
39032;SDS011;24794;51.982;5.878;2023-05-07T05:53:45;11.95;;;9.40;;
39032;SDS011;24794;51.982;5.878;2023-05-07T05:54:45;10.48;;;8.90;;
39032;SDS011;24794;51.982;5.878;2023-05-07T05:55:46;12.45;;;10.48;;
39032;SDS011;24794;51.982;5.878;2023-05-07T05:56:46;13.75;;;10.95;;
39032;SDS011;24794;51.982;5.878;2023-05-07T05:57:47;13.38;;;11.98;;
39032;SDS011;24794;51.982;5.878;2023-05-07T05:58:48;12.13;;;10.60;;
39032;SDS011;24794;51.982;5.878;2023-05-07T05:59:48;11.68;;;10.48;;
39032;SDS011;24794;51.982;5.878;2023-05-07T06:00:49;11.68;;;10.13;;
39032;SDS011;24794;51.982;5.878;2023-05-07T06:01:52;11.88;;;9.32;;
39032;SDS011;24794;51.982;5.878;2023-05-07T06:02:52;14.88;;;11.63;;
39032;SDS011;24794;51.982;5.878;2023-05-07T06:03:53;13.35;;;11.90;;